Time;durP1;ratioP1;P1;durP2;ratioP2;P2;SDS_P1;SDS_P2;PMS_P1;PMS_P2;Temp;Humidity;BMP_temperature;BMP_pressure;BME280_temperature;BME280_humidity;BME280_pressure;Samples;Min_cycle;Max_cycle;Signal;HPM_P1;HPM_P2
2021/01/28 00:00:37;;;;;;;35.48;16.62;;;;;;;-1.64;96.06;98090.47;1778611;80;20972;-73
2021/01/28 00:03:06;;;;;;;31.00;15.78;;;;;;;-1.64;96.09;98079.70;1780194;79;21062;-73
2021/01/28 00:05:36;;;;;;;31.82;16.10;;;;;;;-1.65;96.40;98067.33;1784841;80;21370;-72
2021/01/28 00:08:04;;;;;;;33.40;15.93;;;;;;;-1.66;96.59;98065.72;1784800;80;21132;-73
2021/01/28 00:10:32;;;;;;;32.73;16.48;;;;;;;-1.66;96.65;98064.37;1746338;82;21050;-72
2021/01/28 00:13:01;;;;;;;33.38;15.83;;;;;;;-1.66;96.65;98065.72;1785011;80;21120;-74
2021/01/28 00:15:31;;;;;;;35.30;16.82;;;;;;;-1.66;96.74;98057.11;1784929;80;21497;-73
2021/01/28 00:18:00;;;;;;;30.68;14.73;;;;;;;-1.65;96.81;98055.22;1746166;82;21372;-73
2021/01/28 00:20:47;;;;;;;32.35;17.62;;;;;;;-1.66;96.88;98046.88;1725645;83;21084;-73
2021/01/28 00:23:16;;;;;;;27.85;15.23;;;;;;;-1.68;97.06;98032.89;1759141;80;21481;-73
2021/01/28 00:25:44;;;;;;;29.05;16.15;;;;;;;-1.68;97.27;98055.77;1761783;80;21545;-72
2021/01/28 00:28:15;;;;;;;30.27;15.70;;;;;;;-1.69;97.45;98060.88;1784824;80;20950;-73
2021/01/28 00:30:46;;;;;;;37.05;17.77;;;;;;;-1.68;97.65;98061.14;1784885;80;22327;-72
2021/01/28 00:33:22;;;;;;;34.08;16.95;;;;;;;-1.69;97.64;98065.72;1784847;80;21517;-72
2021/01/28 00:35:50;;;;;;;26.97;14.05;;;;;;;-1.70;97.58;98056.03;1784938;80;20978;-72
2021/01/28 00:38:24;;;;;;;30.12;15.03;;;;;;;-1.68;97.93;98052.53;1760528;80;20994;-73
2021/01/28 00:40:52;;;;;;;27.35;14.10;;;;;;;-1.67;97.94;98045.27;1784430;80;21623;-73
2021/01/28 00:43:19;;;;;;;24.95;12.75;;;;;;;-1.67;97.88;98047.95;1784805;80;21194;-73
2021/01/28 00:45:47;;;;;;;29.70;14.47;;;;;;;-1.67;97.84;98047.95;1784749;80;20958;-72
2021/01/28 00:48:15;;;;;;;24.02;12.47;;;;;;;-1.67;97.86;98041.23;1784692;80;20994;-73
2021/01/28 00:50:43;;;;;;;26.45;14.68;;;;;;;-1.65;97.89;98048.49;1785074;79;20969;-73
2021/01/28 00:53:13;;;;;;;30.45;14.63;;;;;;;-1.65;97.78;98043.11;1784890;80;21528;-73
2021/01/28 00:55:41;;;;;;;24.72;14.43;;;;;;;-1.65;97.73;98045.80;1784860;80;21206;-73
2021/01/28 00:58:16;;;;;;;29.85;14.63;;;;;;;-1.63;97.95;98054.95;1783927;80;21033;-73
2021/01/28 01:00:45;;;;;;;35.38;17.30;;;;;;;-1.60;97.96;98047.67;1784967;80;20887;-73
2021/01/28 01:03:15;;;;;;;33.67;15.53;;;;;;;-1.61;97.77;98027.23;1785968;79;21207;-73
2021/01/28 01:05:43;;;;;;;29.15;15.15;;;;;;;-1.61;97.65;98024.00;1781125;80;21528;-73
2021/01/28 01:08:21;;;;;;;30.90;15.20;;;;;;;-1.62;97.58;98010.27;1778132;80;22359;-73
2021/01/28 01:10:55;;;;;;;26.17;13.90;;;;;;;-1.61;97.64;98009.20;1781006;80;20930;-73
2021/01/28 01:13:25;;;;;;;34.23;16.32;;;;;;;-1.62;97.49;98017.00;1778319;80;20977;-73
2021/01/28 01:15:55;;;;;;;36.58;14.10;;;;;;;-1.63;97.39;98011.36;1780373;80;21059;-73
2021/01/28 01:18:28;;;;;;;39.90;17.82;;;;;;;-1.66;97.36;97999.25;1777961;80;21136;-73
2021/01/28 01:20:55;;;;;;;;;;;;;;;-1.67;97.43;97996.30;1783716;80;21773;-73
2021/01/28 01:23:25;;;;;;;29.18;14.18;;;;;;;-1.66;97.50;97995.22;1778114;80;21123;-73
2021/01/28 01:26:02;;;;;;;37.17;18.00;;;;;;;-1.67;97.47;97996.84;1780416;80;20978;-73
2021/01/28 01:28:30;;;;;;;37.45;18.45;;;;;;;-1.65;97.53;97987.95;1778143;80;21065;-72
2021/01/28 01:30:59;;;;;;;28.87;13.90;;;;;;;-1.63;97.66;98006.52;1765774;79;21813;-72
2021/01/28 01:33:28;;;;;;;32.23;16.37;;;;;;;-1.64;97.48;98007.05;1774565;80;21795;-73
2021/01/28 01:35:57;;;;;;;25.68;13.75;;;;;;;-1.66;97.41;98005.98;1791744;80;20939;-73
2021/01/28 01:38:25;;;;;;;27.82;14.95;;;;;;;-1.64;97.40;98003.55;1792582;80;20976;-73
2021/01/28 01:40:56;;;;;;;26.05;13.45;;;;;;;-1.62;97.69;98005.44;1792933;80;21537;-73
2021/01/28 01:43:24;;;;;;;31.00;16.70;;;;;;;-1.62;97.60;97994.13;1761502;81;21101;-72
2021/01/28 01:45:59;;;;;;;26.02;13.78;;;;;;;-1.60;97.54;97998.70;1777342;80;21371;-73
2021/01/28 01:48:40;;;;;;;25.82;13.95;;;;;;;-1.59;97.48;97986.05;1777343;80;21513;-72
2021/01/28 01:51:25;;;;;;;25.05;13.40;;;;;;;-1.57;97.58;97979.31;1777713;80;21045;-72
2021/01/28 01:54:14;;;;;;;23.62;12.95;;;;;;;-1.53;97.45;97960.19;1832160;77;22882;-69
2021/01/28 01:56:58;;;;;;;25.20;14.07;;;;;;;-1.57;97.31;97978.51;1773151;80;21145;-71
2021/01/28 01:59:31;;;;;;;30.70;15.85;;;;;;;-1.57;97.38;97987.39;1790534;80;22607;-72
2021/01/28 02:02:20;;;;;;;36.88;19.05;;;;;;;-1.55;97.46;97989.27;1790394;80;20999;-71
2021/01/28 02:05:24;;;;;;;29.85;14.50;;;;;;;-1.54;97.30;97980.66;1790598;80;20924;-73
2021/01/28 02:08:10;;;;;;;;;;;;;;;-1.54;97.17;97977.95;1793148;80;20928;-73
2021/01/28 02:10:57;;;;;;;21.50;12.47;;;;;;;-1.54;97.26;97972.58;1790711;80;20113;-73
2021/01/28 02:13:41;;;;;;;24.45;12.18;;;;;;;-1.55;97.31;97976.34;1790570;80;21365;-73
2021/01/28 02:16:21;;;;;;;26.17;14.13;;;;;;;-1.54;97.35;97972.03;1788513;79;20988;-72
2021/01/28 02:18:50;;;;;;;26.45;14.28;;;;;;;-1.52;97.32;97984.68;1788608;79;20961;-73
2021/01/28 02:21:30;;;;;;;25.17;13.85;;;;;;;-1.50;97.46;97980.36;1790442;79;21502;-72
2021/01/28 02:24:37;;;;;;;33.48;15.38;;;;;;;-1.50;97.48;97971.75;1777815;79;20884;-72
2021/01/28 02:27:08;;;;;;;25.10;12.75;;;;;;;-1.49;97.44;97976.59;1759397;81;21844;-73
2021/01/28 02:29:43;;;;;;;26.85;13.62;;;;;;;-1.48;97.43;97970.94;1757235;80;20992;-72
2021/01/28 02:32:11;;;;;;;33.92;13.55;;;;;;;-1.47;97.70;97975.78;1721807;82;21174;-73
2021/01/28 02:34:43;;;;;;;24.43;13.15;;;;;;;-1.48;97.85;97970.94;1751058;81;20963;-71
2021/01/28 02:37:20;;;;;;;21.97;11.60;;;;;;;-1.47;97.88;97954.25;1750835;82;21070;-73
2021/01/28 02:39:54;;;;;;;19.42;10.40;;;;;;;-1.48;97.86;97941.88;1751198;81;21371;-73
2021/01/28 02:42:30;;;;;;;20.35;11.60;;;;;;;-1.50;97.88;97935.42;1750098;82;21007;-74
2021/01/28 02:45:05;;;;;;;19.15;10.45;;;;;;;-1.47;98.05;97936.21;1750007;82;21585;-73
2021/01/28 02:47:57;;;;;;;16.00;9.30;;;;;;;-1.49;97.84;97946.45;1751069;82;21474;-72
2021/01/28 02:50:32;;;;;;;17.15;9.60;;;;;;;-1.46;97.70;97949.13;1873474;76;24199;-72
2021/01/28 02:53:03;;;;;;;17.87;9.90;;;;;;;-1.49;97.75;97942.95;1841420;78;20904;-72
2021/01/28 02:55:34;;;;;;;18.90;10.55;;;;;;;-1.48;97.65;97949.95;1841564;78;21351;-72
2021/01/28 02:58:03;;;;;;;17.48;10.35;;;;;;;-1.49;97.63;97948.33;1841472;78;20938;-73
2021/01/28 03:00:34;;;;;;;21.87;10.80;;;;;;;-1.49;97.65;97951.83;1841081;78;21031;-73
2021/01/28 03:03:06;;;;;;;16.95;9.20;;;;;;;-1.47;97.80;97949.67;1841516;78;21479;-73
2021/01/28 03:05:45;;;;;;;20.17;10.32;;;;;;;-1.44;97.76;97951.00;1841171;78;20964;-70
2021/01/28 03:08:13;;;;;;;16.42;8.90;;;;;;;-1.42;97.70;97961.76;1841239;78;21045;-72
2021/01/28 03:10:42;;;;;;;18.85;10.38;;;;;;;-1.42;97.65;97963.11;1841471;78;21486;-72
2021/01/28 03:13:13;;;;;;;18.57;11.57;;;;;;;-1.39;97.78;97967.94;1841352;78;21702;-72
2021/01/28 03:15:45;;;;;;;20.05;10.53;;;;;;;-1.37;97.71;97976.54;1807374;78;21130;-71
2021/01/28 03:18:13;;;;;;;20.23;11.03;;;;;;;-1.36;97.61;97978.16;1841396;78;21046;-72
2021/01/28 03:20:42;;;;;;;16.67;9.98;;;;;;;-1.35;97.54;97981.11;1841440;78;21365;-71
2021/01/28 03:23:14;;;;;;;21.00;10.30;;;;;;;-1.34;97.53;97975.98;1775350;78;20920;-72
2021/01/28 03:25:59;;;;;;;28.15;12.63;;;;;;;-1.31;97.54;97972.48;1806694;79;20968;-72
2021/01/28 03:28:26;;;;;;;26.37;13.45;;;;;;;-1.29;97.48;97974.35;1808389;79;21574;-72
2021/01/28 03:30:56;;;;;;;18.42;10.40;;;;;;;-1.28;97.41;97961.16;1807698;79;21537;-72
2021/01/28 03:33:23;;;;;;;12.50;8.40;;;;;;;-1.25;97.55;97961.95;1748754;82;21476;-72
2021/01/28 03:35:51;;;;;;;18.82;10.90;;;;;;;-1.22;97.42;97961.39;1742686;81;20946;-72
2021/01/28 03:38:20;;;;;;;22.50;9.73;;;;;;;-1.23;97.16;97960.59;1742800;82;21551;-71
2021/01/28 03:40:52;;;;;;;15.98;8.95;;;;;;;-1.23;97.04;97955.20;1742422;82;20938;-72
2021/01/28 03:43:21;;;;;;;15.80;9.35;;;;;;;-1.23;97.05;97947.67;1742878;82;20958;-73
2021/01/28 03:45:49;;;;;;;18.87;10.23;;;;;;;-1.25;97.00;97933.14;1742841;82;22134;-73
2021/01/28 03:48:16;;;;;;;18.15;9.83;;;;;;;-1.22;97.03;97931.23;1756228;80;21072;-74
2021/01/28 03:50:57;;;;;;;26.97;13.62;;;;;;;-1.18;96.88;97928.80;1889978;76;22625;-71
2021/01/28 03:53:32;;;;;;;18.65;9.30;;;;;;;-1.22;96.98;97940.66;1859911;77;20982;-73
2021/01/28 03:56:07;;;;;;;15.98;9.55;;;;;;;-1.22;96.96;97944.70;1846209;76;21314;-73
2021/01/28 03:58:35;;;;;;;16.55;8.68;;;;;;;-1.22;96.90;97937.16;1846379;77;21534;-75
2021/01/28 04:01:21;;;;;;;13.45;7.97;;;;;;;-1.21;96.86;97942.81;1844542;77;21002;-74
2021/01/28 04:03:50;;;;;;;14.60;8.03;;;;;;;-1.21;96.82;97940.92;1860910;77;21577;-74
2021/01/28 04:06:33;;;;;;;16.42;8.40;;;;;;;-1.17;96.73;97950.59;1873518;76;22708;-72
2021/01/28 04:09:03;;;;;;;13.32;7.08;;;;;;;-1.22;96.59;97958.16;1840196;78;20873;-74
2021/01/28 04:11:50;;;;;;;13.78;7.83;;;;;;;-1.21;96.59;97958.97;1841616;78;22262;-73
2021/01/28 04:14:30;;;;;;;12.23;7.30;;;;;;;-1.13;96.75;97951.62;1889899;76;22858;-71
2021/01/28 04:17:03;;;;;;;15.03;8.60;;;;;;;-1.17;96.57;97953.29;1860872;77;21176;-72
2021/01/28 04:19:31;;;;;;;14.18;8.38;;;;;;;-1.19;96.38;97939.30;1860737;77;21350;-72
2021/01/28 04:21:59;;;;;;;14.87;8.48;;;;;;;-1.19;96.34;97937.95;1860767;77;20919;-72
2021/01/28 04:24:30;;;;;;;14.18;8.10;;;;;;;-1.19;96.42;97931.22;1840317;77;20935;-72
2021/01/28 04:26:58;;;;;;;16.60;8.70;;;;;;;-1.18;96.39;97930.14;1827209;78;20927;-71
2021/01/28 04:29:33;;;;;;;14.23;7.78;;;;;;;-1.18;96.29;97936.87;1823103;78;21018;-72
2021/01/28 04:32:11;;;;;;;17.37;7.87;;;;;;;-1.15;96.24;97945.16;1873429;76;22629;-71
2021/01/28 04:34:43;;;;;;;16.93;7.30;;;;;;;-1.17;96.59;97941.98;1836965;78;21031;-72
2021/01/28 04:37:13;;;;;;;22.98;11.05;;;;;;;-1.18;96.40;97959.22;1840756;78;21320;-71
2021/01/28 04:39:44;;;;;;;16.55;8.85;;;;;;;-1.18;96.30;97951.68;1834548;78;21012;-73
2021/01/28 04:42:20;;;;;;;16.85;9.13;;;;;;;-1.18;96.26;97947.09;1841367;78;20924;-72
2021/01/28 04:44:49;;;;;;;17.15;7.92;;;;;;;-1.17;96.50;97938.48;1811008;78;21024;-73
2021/01/28 04:47:21;;;;;;;17.62;8.15;;;;;;;-1.17;96.62;97934.44;1840640;78;20913;-74
2021/01/28 04:49:58;;;;;;;13.08;7.33;;;;;;;-1.17;96.59;97930.41;1842956;76;21174;-72
2021/01/28 04:52:37;;;;;;;19.25;9.43;;;;;;;-1.18;96.49;97927.45;1808381;79;21379;-72
2021/01/28 04:55:41;;;;;;;15.65;8.40;;;;;;;-1.18;96.86;97926.09;1808578;79;20909;-71
2021/01/28 04:58:09;;;;;;;17.00;9.10;;;;;;;-1.17;96.83;97918.28;1808567;79;20923;-71
2021/01/28 05:00:48;;;;;;;15.45;7.15;;;;;;;-1.13;96.76;97916.61;1890170;76;23207;-73
2021/01/28 05:03:22;;;;;;;14.38;7.08;;;;;;;-1.17;96.66;97916.94;1858309;77;20923;-74
2021/01/28 05:06:01;;;;;;;18.82;7.92;;;;;;;-1.17;96.67;97902.94;1859768;77;21657;-75
2021/01/28 05:08:30;;;;;;;16.52;7.70;;;;;;;-1.20;96.45;97896.76;1858180;77;20979;-75
2021/01/28 05:11:29;;;;;;;15.20;6.92;;;;;;;-1.23;96.32;97892.47;1803355;77;20926;-74
2021/01/28 05:14:27;;;;;;;23.25;10.85;;;;;;;-1.24;96.48;97889.52;1827069;77;21613;-72
2021/01/28 05:17:19;;;;;;;15.05;7.83;;;;;;;-1.25;96.69;97877.94;1860367;77;20931;-72
2021/01/28 05:20:10;;;;;;;20.80;10.80;;;;;;;-1.24;96.86;97874.70;1840195;77;21233;-71
2021/01/28 05:22:59;;;;;;;11.73;7.33;;;;;;;-1.19;96.90;97867.94;1873721;75;22710;-71
2021/01/28 05:25:37;;;;;;;8.48;5.58;;;;;;;-1.23;96.98;97865.01;1807364;79;20979;-72
2021/01/28 05:28:30;;;;;;;11.85;6.22;;;;;;;-1.23;97.00;97860.16;1807231;79;21943;-72
2021/01/28 05:31:20;;;;;;;13.98;6.40;;;;;;;-1.26;96.75;97870.95;1808574;79;21474;-73
2021/01/28 05:33:50;;;;;;;11.95;6.22;;;;;;;-1.27;96.81;97882.00;1806088;79;21042;-73
2021/01/28 05:36:52;;;;;;;13.40;7.28;;;;;;;-1.26;97.19;97890.34;1803150;79;21163;-72
2021/01/28 05:39:35;;;;;;;13.38;6.80;;;;;;;-1.21;97.02;97909.95;1868822;75;22658;-72
2021/01/28 05:42:15;;;;;;;25.15;8.45;;;;;;;-1.25;96.93;97912.95;1825312;78;20915;-71
2021/01/28 05:44:44;;;;;;;14.78;7.87;;;;;;;-1.23;96.94;97922.89;1825102;78;21786;-71
2021/01/28 05:47:23;;;;;;;12.43;6.97;;;;;;;-1.21;96.96;97919.92;1804792;78;21571;-73
2021/01/28 05:50:28;;;;;;;30.12;12.53;;;;;;;-1.21;96.82;97910.50;1845043;76;21034;-79
2021/01/28 05:53:14;;;;;;;35.23;12.18;;;;;;;-1.21;96.53;97911.84;1826860;78;21048;-73
2021/01/28 05:55:43;;;;;;;17.60;8.38;;;;;;;-1.23;96.51;97911.32;1827159;78;21036;-75
2021/01/28 05:58:37;;;;;;;13.80;7.67;;;;;;;-1.22;96.53;97919.13;1826546;78;21659;-77
2021/01/28 06:01:53;;;;;;;12.23;6.50;;;;;;;-1.22;96.29;97926.39;1827005;78;20934;-74
2021/01/28 06:04:56;;;;;;;11.93;6.40;;;;;;;-1.25;96.06;97932.33;1800341;78;21307;-76
2021/01/28 06:07:43;;;;;;;10.48;5.95;;;;;;;-1.24;96.25;97933.94;1824343;78;20972;-77
2021/01/28 06:11:08;;;;;;;18.25;11.18;;;;;;;-1.19;96.24;97933.91;1894923;74;28345;-75
2021/01/28 06:14:37;;;;;;;18.52;9.40;;;;;;;-1.18;96.18;97939.56;1847998;77;21014;-73
2021/01/28 06:17:27;;;;;;;28.20;13.72;;;;;;;-1.14;96.21;97927.12;1848983;77;21100;-72
2021/01/28 06:20:32;;;;;;;20.97;10.82;;;;;;;-1.14;96.34;97915.00;1808875;77;20980;-73
2021/01/28 06:23:47;;;;;;;14.98;9.25;;;;;;;-1.14;96.57;97905.58;1849714;77;21008;-73
2021/01/28 06:26:46;;;;;;;15.55;8.00;;;;;;;-1.11;96.68;97916.59;1780533;79;20931;-74
2021/01/28 06:29:43;;;;;;;11.75;6.20;;;;;;;-1.13;96.26;97912.58;1816594;79;20920;-73
2021/01/28 06:32:59;;;;;;;12.33;6.35;;;;;;;-1.11;96.21;97896.94;1888427;76;22802;-74
2021/01/28 06:36:37;;;;;;;17.90;9.45;;;;;;;-1.14;96.32;97890.23;1725895;82;20994;-72
2021/01/28 06:39:27;;;;;;;14.53;7.75;;;;;;;-1.12;96.28;97902.06;1814971;79;21801;-72
2021/01/28 06:42:35;;;;;;;14.68;8.75;;;;;;;-1.07;96.10;97888.56;1888638;76;22769;-71
2021/01/28 06:45:15;;;;;;;15.73;7.70;;;;;;;-1.10;96.11;97885.08;1774344;80;21057;-74
2021/01/28 06:48:01;;;;;;;19.98;9.75;;;;;;;-1.08;96.08;97886.41;1843318;77;21262;-74
2021/01/28 06:50:52;;;;;;;21.40;9.45;;;;;;;-1.08;96.01;97881.57;1800432;77;21136;-74
2021/01/28 06:53:44;;;;;;;13.78;8.20;;;;;;;-1.07;95.85;97875.09;1849097;77;20978;-73
2021/01/28 06:56:32;;;;;;;20.60;9.98;;;;;;;-1.08;95.93;97862.72;1849097;77;20954;-74
2021/01/28 06:59:25;;;;;;;20.57;9.80;;;;;;;-1.07;95.69;97873.75;1849252;77;21608;-73
2021/01/28 07:02:06;;;;;;;25.68;11.38;;;;;;;-1.10;95.61;97875.11;1848276;77;22101;-73
2021/01/28 07:05:00;;;;;;;17.85;8.75;;;;;;;-1.09;95.58;97880.77;1846841;77;20981;-73
2021/01/28 07:07:34;;;;;;;18.25;9.73;;;;;;;-1.09;95.89;97864.61;1849990;77;21010;-73
2021/01/28 07:10:18;;;;;;;18.15;9.45;;;;;;;-1.09;95.71;97873.23;1847300;77;21041;-74
2021/01/28 07:12:51;;;;;;;24.63;11.90;;;;;;;-1.08;95.79;97874.30;1824277;77;20938;-74
2021/01/28 07:15:30;;;;;;;18.95;10.15;;;;;;;-1.06;95.94;97864.05;1846048;77;21184;-73
2021/01/28 07:18:13;;;;;;;14.68;6.92;;;;;;;-1.02;95.91;97869.67;1849058;77;21013;-72
2021/01/28 07:21:05;;;;;;;10.65;6.40;;;;;;;-1.03;95.59;97865.38;1834548;77;20997;-73
2021/01/28 07:23:38;;;;;;;9.65;6.42;;;;;;;-1.02;95.72;97864.28;1819711;77;20982;-73
2021/01/28 07:26:16;;;;;;;;;;;;;;;-0.98;96.02;97857.25;1819355;79;20930;-72
2021/01/28 07:28:46;;;;;;;11.60;6.60;;;;;;;-0.97;95.60;97858.86;1816734;78;21213;-72
2021/01/28 07:31:44;;;;;;;14.13;8.43;;;;;;;-1.00;95.29;97859.42;1816492;78;20942;-72
2021/01/28 07:34:15;;;;;;;12.75;7.33;;;;;;;-1.01;95.15;97844.34;1816714;79;20926;-72
2021/01/28 07:36:51;;;;;;;9.03;6.35;;;;;;;-1.01;95.52;97848.39;1816611;78;20890;-72
2021/01/28 07:39:38;;;;;;;8.03;5.20;;;;;;;-1.00;95.44;97858.08;1816613;79;20918;-72
2021/01/28 07:42:31;;;;;;;12.00;6.97;;;;;;;-0.97;95.19;97858.06;1817440;78;21927;-73
2021/01/28 07:45:35;;;;;;;8.85;5.10;;;;;;;-0.97;95.18;97852.13;1820034;78;21008;-73
2021/01/28 07:48:27;;;;;;;8.40;4.40;;;;;;;-0.97;94.96;97860.20;1820113;78;21065;-73
2021/01/28 07:51:39;;;;;;;7.42;5.30;;;;;;;-1.00;95.25;97852.69;1817516;78;20950;-72
2021/01/28 07:54:30;;;;;;;12.47;6.60;;;;;;;-0.99;95.46;97858.34;1817191;78;20919;-71
2021/01/28 07:57:10;;;;;;;24.05;11.35;;;;;;;-0.99;95.90;97858.34;1813576;78;21147;-72
2021/01/28 08:00:07;;;;;;;22.85;9.55;;;;;;;-0.96;95.95;97864.51;1790024;78;21135;-73
2021/01/28 08:02:39;;;;;;;18.07;9.28;;;;;;;-0.92;95.70;97862.05;1816567;78;21049;-72
2021/01/28 08:05:19;;;;;;;13.60;7.50;;;;;;;-0.92;95.64;97873.64;1812295;79;20950;-75
2021/01/28 08:08:05;;;;;;;10.55;5.97;;;;;;;-0.89;95.61;97874.96;1804171;78;21061;-75
2021/01/28 08:10:38;;;;;;;9.98;5.22;;;;;;;-0.90;95.27;97882.23;1798246;78;20933;-74
2021/01/28 08:13:26;;;;;;;12.03;5.40;;;;;;;-0.91;95.01;97877.94;1819487;78;21567;-75
2021/01/28 08:16:06;;;;;;;9.23;5.45;;;;;;;-0.90;95.14;97877.40;1817664;78;20910;-74
2021/01/28 08:18:37;;;;;;;7.90;5.08;;;;;;;-0.89;95.00;97881.70;1773020;80;21027;-75
2021/01/28 08:21:09;;;;;;;10.85;6.12;;;;;;;-0.90;94.77;97887.63;1731723;82;20952;-75
2021/01/28 08:23:40;;;;;;;9.85;5.58;;;;;;;-0.90;94.94;97885.48;1773476;81;21381;-76
2021/01/28 08:26:14;;;;;;;10.43;5.90;;;;;;;-0.89;95.12;97883.05;1731706;82;21023;-75
2021/01/28 08:28:43;;;;;;;10.63;6.55;;;;;;;-0.89;95.12;97873.08;1772241;80;20988;-75
2021/01/28 08:31:29;;;;;;;12.25;7.62;;;;;;;-0.90;95.41;97864.73;1767344;80;21560;-75
2021/01/28 08:33:59;;;;;;;8.25;5.53;;;;;;;-0.89;96.12;97870.92;1761914;81;21027;-75
2021/01/28 08:36:55;;;;;;;10.80;5.10;;;;;;;-0.89;96.53;97864.99;1762003;81;21668;-75
2021/01/28 08:39:31;;;;;;;8.95;5.62;;;;;;;-0.88;96.72;97863.10;1762033;81;21478;-74
2021/01/28 08:45:14;;;;;;;10.20;5.80;;;;;;;-0.82;97.08;97858.73;1856241;75;28357;-75
2021/01/28 08:47:42;;;;;;;11.97;6.08;;;;;;;-0.80;97.04;97860.61;1781398;79;21546;-74
2021/01/28 08:50:15;;;;;;;12.70;6.50;;;;;;;-0.74;96.77;97855.98;1778498;78;21455;-74
2021/01/28 08:52:43;;;;;;;17.60;7.85;;;;;;;-0.74;96.51;97856.78;1786714;79;21041;-75
2021/01/28 08:55:24;;;;;;;11.80;6.30;;;;;;;-0.71;96.87;97848.12;1780000;80;20990;-74
2021/01/28 08:57:53;;;;;;;12.25;6.87;;;;;;;-0.67;96.55;97849.72;1786512;79;20945;-74
2021/01/28 09:00:21;;;;;;;13.20;7.85;;;;;;;-0.64;96.54;97851.04;1740980;79;21005;-74
2021/01/28 09:02:52;;;;;;;15.05;7.92;;;;;;;-0.61;96.31;97841.84;1822554;78;21358;-74
2021/01/28 09:05:26;;;;;;;19.62;10.38;;;;;;;-0.59;96.40;97840.21;1773068;79;20964;-74
2021/01/28 09:08:04;;;;;;;21.97;9.40;;;;;;;-0.53;96.55;97844.43;1821410;78;21453;-74
2021/01/28 09:10:40;;;;;;;13.88;7.60;;;;;;;-0.43;96.62;97836.24;1821185;78;21136;-74
2021/01/28 09:13:26;;;;;;;17.90;9.75;;;;;;;-0.34;96.22;97839.38;1819395;78;21120;-74
2021/01/28 09:16:18;;;;;;;12.63;7.58;;;;;;;-0.32;96.05;97844.48;1784395;80;21337;-74
2021/01/28 09:18:48;;;;;;;14.23;7.67;;;;;;;-0.30;96.59;97845.55;1813715;78;21123;-71
2021/01/28 09:21:21;;;;;;;13.05;6.47;;;;;;;-0.29;96.26;97852.55;1818559;78;21065;-72
2021/01/28 09:24:08;;;;;;;22.70;9.58;;;;;;;-0.31;96.37;97843.94;1814254;78;21535;-72
2021/01/28 09:26:35;;;;;;;33.18;14.03;;;;;;;-0.31;96.71;97847.44;1759533;81;20934;-71
2021/01/28 09:29:25;;;;;;;25.43;11.10;;;;;;;-0.30;96.62;97845.55;1762015;81;22284;-72
2021/01/28 09:31:53;;;;;;;18.40;9.68;;;;;;;-0.27;96.77;97843.08;1777276;80;21113;-72
2021/01/28 09:34:26;;;;;;;26.40;13.48;;;;;;;-0.26;96.87;97838.49;1722020;80;21309;-71
2021/01/28 09:36:58;;;;;;;35.75;16.07;;;;;;;-0.23;96.78;97830.63;1780027;80;21053;-71
2021/01/28 09:39:52;;;;;;;23.00;11.70;;;;;;;-0.22;96.58;97826.84;1779807;80;21475;-72
2021/01/28 09:42:28;;;;;;;24.15;12.65;;;;;;;-0.16;96.87;97835.13;1777876;80;22793;-71
2021/01/28 09:45:09;;;;;;;23.30;11.43;;;;;;;-0.15;96.65;97835.39;1777764;80;21164;-70
2021/01/28 09:47:37;;;;;;;12.63;6.62;;;;;;;-0.10;96.64;97840.73;1777996;80;20942;-70
2021/01/28 09:50:10;;;;;;;10.10;5.80;;;;;;;-0.06;96.38;97843.11;1777670;80;21076;-70
2021/01/28 09:52:43;;;;;;;12.75;6.50;;;;;;;-0.04;96.00;97849.56;1771179;80;21189;-71
2021/01/28 09:55:18;;;;;;;11.95;7.25;;;;;;;-0.01;96.17;97857.89;1742260;80;21206;-71
2021/01/28 09:57:45;;;;;;;13.95;7.67;;;;;;;-0.02;95.92;97860.33;1744804;81;21196;-72
2021/01/28 10:00:21;;;;;;;14.75;8.58;;;;;;;-0.02;96.01;97854.94;1746744;81;21089;-72
2021/01/28 10:03:00;;;;;;;13.80;8.00;;;;;;;-0.04;95.90;97841.47;1751664;81;20994;-73
2021/01/28 10:05:33;;;;;;;14.13;6.95;;;;;;;-0.04;95.74;97824.74;1746839;81;21056;-72
2021/01/28 10:08:01;;;;;;;11.20;6.17;;;;;;;-0.09;95.28;97826.70;1748011;81;21385;-73
2021/01/28 10:10:31;;;;;;;11.38;7.25;;;;;;;-0.13;95.59;97834.56;1743986;81;21158;-73
2021/01/28 10:13:06;;;;;;;18.48;9.00;;;;;;;-0.14;95.35;97836.20;1747410;81;21025;-72
2021/01/28 10:15:34;;;;;;;18.37;8.85;;;;;;;-0.12;95.91;97820.53;1747040;81;21491;-73
2021/01/28 10:18:02;;;;;;;15.78;8.13;;;;;;;-0.14;95.56;97823.52;1743657;81;21000;-72
2021/01/28 10:20:30;;;;;;;16.00;9.18;;;;;;;-0.15;95.53;97837.28;1759519;80;21273;-72
2021/01/28 10:23:00;;;;;;;14.80;8.73;;;;;;;-0.16;95.48;97841.08;1775164;80;21561;-73
2021/01/28 10:25:29;;;;;;;15.25;8.78;;;;;;;-0.12;95.79;97835.36;1769782;80;21060;-72
2021/01/28 10:27:57;;;;;;;18.17;10.50;;;;;;;-0.11;95.46;97825.64;1769807;81;21070;-73
2021/01/28 10:30:25;;;;;;;16.00;8.93;;;;;;;-0.13;95.25;97811.63;1769544;79;20924;-74
2021/01/28 10:32:53;;;;;;;20.92;10.68;;;;;;;-0.11;95.40;97810.80;1770258;79;21449;-72
2021/01/28 10:35:25;;;;;;;16.65;8.95;;;;;;;-0.12;95.44;97804.34;1777557;80;20998;-72
2021/01/28 10:37:52;;;;;;;14.25;7.67;;;;;;;-0.11;95.60;97800.02;1777597;80;20986;-72
2021/01/28 10:40:21;;;;;;;11.43;7.22;;;;;;;-0.14;95.26;97801.94;1781067;80;21129;-69
2021/01/28 10:42:56;;;;;;;16.50;9.15;;;;;;;-0.17;95.07;97796.31;1779915;80;21101;-68
2021/01/28 10:45:29;;;;;;;16.00;8.10;;;;;;;-0.17;95.56;97803.86;1753347;80;21176;-68
2021/01/28 10:47:57;;;;;;;17.10;8.63;;;;;;;-0.09;95.59;97802.42;1779324;80;20951;-70
2021/01/28 10:50:28;;;;;;;16.00;9.40;;;;;;;-0.07;95.49;97796.19;1771627;80;21499;-70
2021/01/28 10:52:55;;;;;;;18.50;8.63;;;;;;;-0.10;95.21;97799.47;1779810;80;20927;-69
2021/01/28 10:55:25;;;;;;;13.05;6.95;;;;;;;-0.09;95.02;97799.18;1779378;80;20954;-69
2021/01/28 10:57:52;;;;;;;10.35;6.22;;;;;;;-0.11;94.25;97792.47;1778533;80;21439;-69
2021/01/28 11:00:22;;;;;;;15.70;6.75;;;;;;;-0.19;94.08;97791.20;1777634;80;21120;-69
2021/01/28 11:02:49;;;;;;;13.55;7.28;;;;;;;-0.23;94.42;97792.88;1782966;80;20982;-69
2021/01/28 11:05:26;;;;;;;11.10;6.62;;;;;;;-0.21;95.03;97796.09;1780026;80;21200;-71
2021/01/28 11:07:54;;;;;;;12.33;7.00;;;;;;;-0.18;95.35;97795.52;1769114;80;20952;-70
2021/01/28 11:10:23;;;;;;;13.03;7.53;;;;;;;-0.14;95.13;97794.39;1769258;80;21382;-70
2021/01/28 11:12:53;;;;;;;17.32;8.63;;;;;;;-0.13;95.40;97790.05;1769079;80;21052;-70
2021/01/28 11:15:22;;;;;;;22.77;10.03;;;;;;;-0.13;94.58;97789.25;1768963;80;20996;-69
2021/01/28 11:17:50;;;;;;;13.70;7.92;;;;;;;-0.17;94.68;97790.37;1773694;80;21149;-69
2021/01/28 11:20:19;;;;;;;13.93;7.03;;;;;;;-0.15;95.01;97786.05;1769452;80;21608;-70
2021/01/28 11:22:46;;;;;;;14.35;6.50;;;;;;;-0.08;95.26;97781.91;1769330;81;21376;-69
2021/01/28 11:25:21;;;;;;;10.78;6.10;;;;;;;-0.08;94.06;97782.45;1769127;79;20936;-69
2021/01/28 11:27:49;;;;;;;12.78;6.75;;;;;;;-0.13;93.20;97777.92;1769490;80;20992;-70
2021/01/28 11:30:21;;;;;;;23.83;10.45;;;;;;;-0.21;93.20;97775.86;1769722;79;20920;-82
2021/01/28 11:32:49;;;;;;;17.57;7.75;;;;;;;-0.25;94.01;97771.33;1769766;80;20995;-74
2021/01/28 11:35:20;;;;;;;13.20;6.20;;;;;;;-0.23;94.48;97768.61;1769705;80;21443;-69
2021/01/28 11:37:49;;;;;;;13.70;5.80;;;;;;;-0.19;94.10;97765.59;1769483;80;21628;-69
2021/01/28 11:40:21;;;;;;;15.48;7.05;;;;;;;-0.17;94.40;97771.50;1769201;81;20932;-69
2021/01/28 11:42:49;;;;;;;11.43;6.35;;;;;;;-0.18;93.98;97767.20;1753257;80;21101;-71
2021/01/28 11:45:23;;;;;;;10.38;5.72;;;;;;;-0.20;93.82;97773.97;1769741;81;21054;-70
2021/01/28 11:47:51;;;;;;;12.05;5.67;;;;;;;-0.21;93.79;97762.38;1769487;80;21198;-69
2021/01/28 11:50:21;;;;;;;8.18;4.22;;;;;;;-0.17;93.56;97755.86;1769118;80;21000;-71
2021/01/28 11:52:49;;;;;;;7.65;4.75;;;;;;;-0.15;92.94;97769.31;1769625;80;21181;-69
2021/01/28 11:55:19;;;;;;;10.98;5.87;;;;;;;-0.17;92.72;97762.05;1769668;80;20920;-69
2021/01/28 11:57:47;;;;;;;11.60;6.25;;;;;;;-0.17;92.76;97762.61;1769306;80;21482;-70
2021/01/28 12:00:15;;;;;;;12.53;6.28;;;;;;;-0.12;93.12;97762.54;1769216;80;21431;-69
2021/01/28 12:02:43;;;;;;;12.65;6.37;;;;;;;-0.10;92.83;97763.05;1769170;80;20976;-70
2021/01/28 12:05:13;;;;;;;10.58;5.83;;;;;;;-0.11;92.37;97749.31;1769043;80;21003;-70
2021/01/28 12:07:41;;;;;;;9.70;5.60;;;;;;;-0.12;92.63;97749.05;1769250;80;21010;-69
2021/01/28 12:10:11;;;;;;;10.93;5.40;;;;;;;-0.11;92.45;97744.72;1769659;80;21620;-69
2021/01/28 12:12:40;;;;;;;8.68;5.15;;;;;;;-0.08;92.48;97738.75;1768814;80;21374;-69